createdAt,value
2018-01-18T16:40:34.560Z,980.46
2018-01-18T16:41:34.220Z,980.49
2018-01-18T16:42:34.198Z,980.47
2018-01-18T16:43:34.182Z,980.48
2018-01-18T16:44:34.153Z,980.45
2018-01-18T16:45:34.442Z,980.51
2018-01-18T16:46:34.363Z,980.53
2018-01-18T16:47:34.365Z,980.52
2018-01-18T16:48:34.055Z,980.57
2018-01-18T16:49:34.074Z,980.56
2018-01-18T16:50:34.009Z,980.58
2018-01-18T16:51:42.897Z,980.58
2018-01-18T16:53:27.433Z,980.59
2018-01-18T16:54:27.319Z,980.59
2018-01-18T16:55:27.304Z,980.62
2018-01-18T16:56:27.322Z,980.61
2018-01-18T16:57:27.312Z,980.60
2018-01-18T16:58:27.614Z,980.63
2018-01-18T16:59:27.534Z,980.62
2018-01-18T17:00:27.201Z,980.65
2018-01-18T17:01:27.172Z,980.68
2018-01-18T17:02:27.155Z,980.70
2018-01-18T17:03:27.135Z,980.69
2018-01-18T17:04:27.126Z,980.73
2018-01-18T17:05:27.104Z,980.76
2018-01-18T17:06:27.085Z,980.75
2018-01-18T17:07:27.072Z,980.76
2018-01-18T17:08:27.033Z,980.80
2018-01-18T17:09:27.037Z,980.78
2018-01-18T17:10:27.014Z,980.81
2018-01-18T17:11:26.989Z,980.79
2018-01-18T17:12:26.987Z,980.87
2018-01-18T17:13:26.954Z,980.82
2018-01-18T17:14:26.931Z,980.81
2018-01-18T17:15:26.925Z,980.81
2018-01-18T17:16:26.903Z,980.84
2018-01-18T17:17:26.883Z,980.86
2018-01-18T17:18:26.855Z,980.90
2018-01-18T17:19:26.834Z,980.93
2018-01-18T17:20:26.815Z,980.92
2018-01-18T17:21:26.806Z,980.93
2018-01-18T17:22:26.788Z,980.92
2018-01-18T17:23:26.765Z,980.94
2018-01-18T17:24:26.742Z,980.92
2018-01-18T17:25:26.722Z,980.92
2018-01-18T17:26:26.719Z,980.85
2018-01-18T17:27:26.681Z,980.85
2018-01-18T17:28:26.665Z,980.82
2018-01-18T17:29:26.655Z,980.84
2018-01-18T17:30:26.628Z,980.82
2018-01-18T17:31:26.606Z,980.83
2018-01-18T17:32:26.593Z,980.84
2018-01-18T17:33:26.580Z,980.84
2018-01-18T17:34:26.555Z,980.82
2018-01-18T17:35:26.532Z,980.79
2018-01-18T17:36:26.513Z,980.81
2018-01-18T17:37:26.500Z,980.82
2018-01-18T17:38:26.488Z,980.85
2018-01-18T17:39:26.466Z,980.89
2018-01-18T17:40:26.439Z,980.94
2018-01-18T17:41:26.430Z,980.98
2018-01-18T17:42:26.398Z,981.01
2018-01-18T17:43:26.379Z,981.02
2018-01-18T17:44:26.382Z,981.01
2018-01-18T17:45:26.341Z,981.03
2018-01-18T17:46:27.922Z,981.06
2018-01-18T17:47:26.299Z,981.08
2018-01-18T17:48:26.287Z,981.05
2018-01-18T17:49:26.270Z,981.07
2018-01-18T17:50:26.247Z,981.06
2018-01-18T17:51:26.223Z,981.12
2018-01-18T17:52:26.214Z,981.11
2018-01-18T17:53:26.192Z,981.17
2018-01-18T17:54:26.174Z,981.18
2018-01-18T17:55:26.162Z,981.20
2018-01-18T17:56:26.133Z,981.14
2018-01-18T17:57:26.123Z,981.24
2018-01-18T17:58:26.091Z,981.23
2018-01-18T17:59:26.082Z,981.22
2018-01-18T18:00:26.051Z,981.17
2018-01-18T18:01:26.047Z,981.19
2018-01-18T18:02:26.012Z,981.21
2018-01-18T18:03:25.996Z,981.24
2018-01-18T18:04:25.990Z,981.28
2018-01-18T18:05:25.974Z,981.25
2018-01-18T18:06:25.951Z,981.26
2018-01-18T18:07:25.920Z,981.29
2018-01-18T18:08:25.903Z,981.30
2018-01-18T18:09:25.889Z,981.31
2018-01-18T18:10:25.875Z,981.30
2018-01-18T18:11:25.853Z,981.29
2018-01-18T18:12:25.824Z,981.29
2018-01-18T18:13:25.806Z,981.35
2018-01-18T18:14:25.786Z,981.34
2018-01-18T18:15:25.770Z,981.36
2018-01-18T18:16:25.771Z,981.39
2018-01-18T18:17:25.732Z,981.41
2018-01-18T18:18:25.712Z,981.42
2018-01-18T18:19:25.693Z,981.44
2018-01-18T18:20:25.678Z,981.39
2018-01-18T18:21:25.665Z,981.45
2018-01-18T18:22:25.637Z,981.45
2018-01-18T18:23:25.621Z,981.46
2018-01-18T18:24:25.593Z,981.45
2018-01-18T18:25:25.583Z,981.41
2018-01-18T18:26:25.558Z,981.43
2018-01-18T18:27:25.542Z,981.43
2018-01-18T18:28:25.542Z,981.44
2018-01-18T18:29:25.503Z,981.48
2018-01-18T18:30:25.490Z,981.44
2018-01-18T18:31:25.464Z,981.47
2018-01-18T18:32:25.440Z,981.45
2018-01-18T18:33:25.430Z,981.48
2018-01-18T18:34:25.398Z,981.47
2018-01-18T18:35:25.399Z,981.50
2018-01-18T18:36:25.386Z,981.45
2018-01-18T18:37:25.357Z,981.45
2018-01-18T18:38:25.322Z,981.49
2018-01-18T18:39:25.312Z,981.53
2018-01-18T18:40:25.292Z,981.49
2018-01-18T18:41:25.277Z,981.53
2018-01-18T18:42:25.255Z,981.62
2018-01-18T18:43:25.232Z,981.65
2018-01-18T18:44:25.226Z,981.64
2018-01-18T18:45:25.202Z,981.66
2018-01-18T18:46:25.180Z,981.71
2018-01-18T18:47:25.151Z,981.76
2018-01-18T18:48:25.135Z,981.69
2018-01-18T18:49:25.120Z,981.68
2018-01-18T18:50:25.107Z,981.73
2018-01-18T18:51:25.078Z,981.72
2018-01-18T18:52:25.055Z,981.78
2018-01-18T18:53:25.039Z,981.77
2018-01-18T18:54:25.020Z,981.76
2018-01-18T18:55:25.010Z,981.75
2018-01-18T18:56:24.981Z,981.75
2018-01-18T18:57:24.962Z,981.80
2018-01-18T18:58:24.952Z,981.84
2018-01-18T18:59:24.923Z,981.87
2018-01-18T19:00:24.904Z,981.91
2018-01-18T19:01:24.881Z,981.95
2018-01-18T19:02:24.865Z,981.94
2018-01-18T19:04:46.215Z,981.99
2018-01-18T19:05:45.901Z,981.98
2018-01-18T19:06:46.158Z,982.05
2018-01-18T19:07:46.085Z,982.00
2018-01-18T19:08:45.810Z,981.99
2018-01-18T19:09:45.758Z,982.05
2018-01-18T19:10:45.733Z,982.06
2018-01-18T19:11:45.691Z,982.06
2018-01-18T19:12:45.704Z,982.08
2018-01-18T19:13:45.691Z,982.09
2018-01-18T19:14:45.891Z,982.08
2018-01-18T19:15:45.945Z,982.09
2018-01-18T19:16:45.942Z,982.07
2018-01-18T19:17:45.945Z,982.08
2018-01-18T19:18:45.910Z,982.11
2018-01-18T19:19:45.570Z,982.12
2018-01-18T19:20:45.528Z,982.11
2018-01-18T19:21:55.195Z,982.17
2018-01-18T19:23:38.932Z,982.08
2018-01-18T19:24:38.855Z,982.07
2018-01-18T19:25:38.807Z,982.11
2018-01-18T19:26:38.796Z,982.10
2018-01-18T19:27:38.797Z,982.13
2018-01-18T19:28:38.771Z,982.09
2018-01-18T19:29:39.006Z,982.13
2018-01-18T19:30:38.967Z,982.13
2018-01-18T19:31:39.015Z,982.05
2018-01-18T19:32:39.005Z,982.04
2018-01-18T19:33:38.890Z,982.07
2018-01-18T19:34:38.932Z,982.06
2018-01-18T19:35:38.628Z,981.97
2018-01-18T19:36:38.597Z,981.97
2018-01-18T19:37:38.562Z,982.00
2018-01-18T19:38:38.565Z,982.00
2018-01-18T19:39:38.536Z,982.01
2018-01-18T19:40:38.530Z,982.00
2018-01-18T19:41:38.501Z,982.00
2018-01-18T19:42:38.472Z,982.01
2018-01-18T19:43:38.459Z,982.00
2018-01-18T19:44:38.434Z,981.96
2018-01-18T19:45:38.412Z,981.96
2018-01-18T19:46:38.412Z,981.96
2018-01-18T19:47:38.373Z,981.94
2018-01-18T19:48:38.350Z,981.95
2018-01-18T19:49:38.345Z,981.94
2018-01-18T19:50:38.354Z,981.93
2018-01-18T19:51:38.309Z,981.92
2018-01-18T19:52:38.309Z,981.95
2018-01-18T19:53:38.254Z,981.95
2018-01-18T19:54:38.274Z,981.92
2018-01-18T19:55:38.219Z,981.95
2018-01-18T19:56:38.207Z,981.95
2018-01-18T19:57:38.189Z,981.94
2018-01-18T19:58:38.169Z,981.97
2018-01-18T19:59:38.147Z,982.01
2018-01-18T20:00:38.130Z,982.05
2018-01-18T20:01:38.162Z,982.06
2018-01-18T20:02:47.109Z,982.04
2018-01-18T20:04:31.779Z,982.07
2018-01-18T20:05:31.726Z,982.18
2018-01-18T20:06:31.709Z,982.15
2018-01-18T20:07:31.680Z,982.15
2018-01-18T20:08:31.612Z,982.17
2018-01-18T20:09:31.625Z,982.20
2018-01-18T20:10:31.684Z,982.27
2018-01-18T20:11:31.321Z,982.26
2018-01-18T20:12:31.295Z,982.20
2018-01-18T20:13:31.289Z,982.19
2018-01-18T20:14:31.297Z,982.16
2018-01-18T20:15:31.524Z,982.16
2018-01-18T20:16:31.531Z,982.18
2018-01-18T20:17:31.526Z,982.20
2018-01-18T20:18:31.189Z,982.18
2018-01-18T20:19:31.422Z,982.16
2018-01-18T20:20:31.435Z,982.13
2018-01-18T20:21:31.474Z,982.15
2018-01-18T20:22:31.456Z,982.15
2018-01-18T20:23:31.453Z,982.17
2018-01-18T20:24:31.856Z,982.17
2018-01-18T20:25:31.374Z,982.22
2018-01-18T20:26:31.323Z,982.22
2018-01-18T20:27:31.361Z,982.24
2018-01-18T20:28:31.320Z,982.20
2018-01-18T20:29:31.292Z,982.24
2018-01-18T20:30:31.344Z,982.26
2018-01-18T20:31:31.300Z,982.23
2018-01-18T20:32:30.917Z,982.25
2018-01-18T20:33:31.284Z,982.19
2018-01-18T20:34:31.240Z,982.24
2018-01-18T20:35:31.239Z,982.21
2018-01-18T20:36:31.227Z,982.24
2018-01-18T20:37:31.150Z,982.23
2018-01-18T20:38:31.106Z,982.24
2018-01-18T20:39:30.768Z,982.27
2018-01-18T20:40:30.739Z,982.33
2018-01-18T20:41:30.739Z,982.33
2018-01-18T20:42:30.706Z,982.35
2018-01-18T20:43:30.675Z,982.32
2018-01-18T20:44:30.678Z,982.26
2018-01-18T20:45:30.646Z,982.27
2018-01-18T20:46:30.659Z,982.23
2018-01-18T20:47:30.608Z,982.23
2018-01-18T20:48:30.602Z,982.23
2018-01-18T20:49:30.557Z,982.28
2018-01-18T20:50:30.545Z,982.26
2018-01-18T20:51:30.522Z,982.24
2018-01-18T20:52:30.519Z,982.30
2018-01-18T20:53:30.487Z,982.25
2018-01-18T20:54:30.465Z,982.23
2018-01-18T20:55:30.452Z,982.25
2018-01-18T20:56:30.428Z,982.21
2018-01-18T20:57:30.421Z,982.19
2018-01-18T20:58:30.748Z,982.20
2018-01-18T20:59:30.377Z,982.24
2018-01-18T21:00:30.354Z,982.22
2018-01-18T21:01:30.325Z,982.25
2018-01-18T21:02:39.973Z,982.20
2018-01-18T21:04:23.788Z,982.18
2018-01-18T21:05:23.663Z,982.18
2018-01-18T21:06:23.653Z,982.12
2018-01-18T21:07:23.906Z,982.16
2018-01-18T21:08:23.909Z,982.10
2018-01-18T21:09:23.944Z,982.12
2018-01-18T21:10:23.877Z,982.09
2018-01-18T21:11:23.880Z,982.08
2018-01-18T21:12:23.877Z,982.11
2018-01-18T21:13:23.778Z,982.14
2018-01-18T21:14:23.765Z,982.05
2018-01-18T21:15:23.803Z,982.04
2018-01-18T21:16:23.726Z,982.03
2018-01-18T21:17:23.756Z,982.03
2018-01-18T21:18:23.395Z,982.09
2018-01-18T21:19:23.386Z,982.04
2018-01-18T21:20:23.351Z,982.00
2018-01-18T21:21:23.347Z,982.01
2018-01-18T21:22:23.319Z,982.05
2018-01-18T21:23:23.301Z,982.05
2018-01-18T21:24:23.316Z,982.06
2018-01-18T21:25:23.277Z,982.04
2018-01-18T21:26:23.240Z,982.04
2018-01-18T21:27:23.209Z,982.06
2018-01-18T21:28:23.220Z,982.04
2018-01-18T21:29:23.189Z,982.08
2018-01-18T21:30:23.173Z,982.05
2018-01-18T21:31:23.138Z,982.06
2018-01-18T21:32:23.119Z,982.07
2018-01-18T21:33:23.128Z,982.07
2018-01-18T21:34:23.084Z,982.10
2018-01-18T21:35:23.062Z,982.06
2018-01-18T21:36:23.037Z,982.06
2018-01-18T21:37:23.027Z,982.10
2018-01-18T21:38:22.999Z,982.10
2018-01-18T21:39:23.005Z,982.10
2018-01-18T21:40:22.977Z,982.13
2018-01-18T21:41:22.941Z,982.11
2018-01-18T21:42:22.947Z,982.08
2018-01-18T21:43:22.922Z,982.12
2018-01-18T21:44:22.899Z,982.12
2018-01-18T21:45:22.874Z,982.09
2018-01-18T21:46:22.880Z,982.07
2018-01-18T21:47:22.841Z,982.06
2018-01-18T21:48:22.815Z,982.03
2018-01-18T21:49:22.793Z,981.99
2018-01-18T21:50:22.777Z,981.96
2018-01-18T21:51:22.753Z,981.98
2018-01-18T21:52:22.734Z,982.04
2018-01-18T21:53:22.735Z,982.05
2018-01-18T21:54:22.701Z,982.07
2018-01-18T21:55:22.668Z,982.08
2018-01-18T21:56:22.665Z,982.10
2018-01-18T21:57:22.658Z,982.13
2018-01-18T21:58:22.615Z,982.07
2018-01-18T21:59:22.609Z,982.04
2018-01-18T22:00:22.581Z,982.00
2018-01-18T22:01:22.561Z,982.04
2018-01-18T22:02:22.570Z,982.06
2018-01-18T22:03:22.545Z,982.05
2018-01-18T22:04:22.500Z,982.03
2018-01-18T22:05:22.490Z,982.08
2018-01-18T22:06:22.468Z,982.02
2018-01-18T22:07:22.471Z,982.00
2018-01-18T22:08:22.423Z,981.98
2018-01-18T22:09:22.404Z,981.94
2018-01-18T22:10:22.388Z,981.95
2018-01-18T22:11:22.369Z,981.97
2018-01-18T22:12:22.356Z,981.96
2018-01-18T22:13:22.321Z,981.91
2018-01-18T22:14:22.308Z,981.97
2018-01-18T22:15:22.285Z,982.02
2018-01-18T22:16:22.298Z,982.00
2018-01-18T22:17:22.276Z,981.99
2018-01-18T22:18:22.237Z,981.99
2018-01-18T22:19:22.235Z,981.98
2018-01-18T22:20:22.199Z,981.98
2018-01-18T22:21:22.177Z,982.01
2018-01-18T22:22:22.158Z,982.02
2018-01-18T22:23:22.135Z,982.00
2018-01-18T22:24:22.129Z,982.01
2018-01-18T22:25:22.110Z,981.96
2018-01-18T22:26:22.071Z,981.95
2018-01-18T22:27:22.065Z,981.92
2018-01-18T22:28:22.047Z,981.94
2018-01-18T22:29:22.019Z,981.89
2018-01-18T22:30:22.000Z,981.84
2018-01-18T22:31:21.981Z,981.83
2018-01-18T22:32:21.964Z,981.79
2018-01-18T22:33:21.936Z,981.81
2018-01-18T22:34:21.920Z,981.82
2018-01-18T22:35:21.900Z,981.82
2018-01-18T22:36:21.885Z,981.79
2018-01-18T22:37:21.853Z,981.74
2018-01-18T22:38:21.846Z,981.78
2018-01-18T22:39:21.829Z,981.71
2018-01-18T22:40:21.800Z,981.75
2018-01-18T22:41:21.781Z,981.72
2018-01-18T22:42:21.768Z,981.71
2018-01-18T22:43:21.742Z,981.66
2018-01-18T22:44:21.724Z,981.67
2018-01-18T22:45:21.714Z,981.63
2018-01-18T22:46:21.691Z,981.57
2018-01-18T22:47:21.679Z,981.53
2018-01-18T22:48:21.647Z,981.52
2018-01-18T22:49:21.656Z,981.48
2018-01-18T22:50:21.611Z,981.47
2018-01-18T22:51:21.590Z,981.43
2018-01-18T22:52:21.565Z,981.48
2018-01-18T22:53:21.570Z,981.54
2018-01-18T22:54:21.551Z,981.55
2018-01-18T22:55:21.513Z,981.57
2018-01-18T22:56:21.493Z,981.62
2018-01-18T22:57:21.477Z,981.52
2018-01-18T22:58:21.455Z,981.55
2018-01-18T22:59:21.433Z,981.59
2018-01-18T23:00:21.410Z,981.58
2018-01-18T23:01:21.420Z,981.60
2018-01-18T23:02:21.379Z,981.62
2018-01-18T23:03:21.353Z,981.61
2018-01-18T23:04:21.353Z,981.67
2018-01-18T23:05:21.316Z,981.64
2018-01-18T23:06:21.295Z,981.64
2018-01-18T23:07:21.280Z,981.65
2018-01-18T23:08:21.253Z,981.61
2018-01-18T23:09:21.242Z,981.62
2018-01-18T23:10:21.213Z,981.69
2018-01-18T23:11:21.213Z,981.67
2018-01-18T23:12:21.206Z,981.69
2018-01-18T23:13:21.155Z,981.80
2018-01-18T23:14:21.132Z,981.77
2018-01-18T23:15:21.113Z,981.84
2018-01-18T23:16:21.098Z,981.83
2018-01-18T23:17:21.088Z,981.86
2018-01-18T23:18:21.064Z,981.90
2018-01-18T23:19:21.041Z,981.89
2018-01-18T23:20:21.031Z,981.89
2018-01-18T23:21:21.004Z,981.91
2018-01-18T23:22:20.990Z,981.90
2018-01-18T23:23:20.958Z,981.87
2018-01-18T23:24:20.938Z,981.82
2018-01-18T23:25:20.926Z,981.87
2018-01-18T23:26:20.916Z,981.88
2018-01-18T23:27:20.900Z,981.90
2018-01-18T23:28:20.865Z,981.86
2018-01-18T23:29:20.838Z,981.88
2018-01-18T23:30:20.868Z,981.90
2018-01-18T23:31:20.803Z,981.91
2018-01-18T23:32:20.787Z,981.98
2018-01-18T23:33:20.758Z,982.04
2018-01-18T23:34:20.742Z,982.10
2018-01-18T23:35:20.720Z,982.09
2018-01-18T23:36:20.694Z,982.12
2018-01-18T23:37:20.678Z,982.10
2018-01-18T23:38:20.671Z,982.16
2018-01-18T23:39:20.643Z,982.18
2018-01-18T23:40:20.618Z,982.21
2018-01-18T23:41:20.599Z,982.25
2018-01-18T23:42:20.586Z,982.26
2018-01-18T23:43:20.561Z,982.26
2018-01-18T23:44:20.541Z,982.30
2018-01-18T23:45:20.519Z,982.33
2018-01-18T23:46:20.497Z,982.36
2018-01-18T23:47:20.484Z,982.35
2018-01-18T23:48:20.467Z,982.43
2018-01-18T23:49:20.442Z,982.37
2018-01-18T23:50:20.464Z,982.30
2018-01-18T23:51:20.397Z,982.05
2018-01-18T23:52:20.378Z,981.95
2018-01-18T23:53:20.361Z,981.89
2018-01-18T23:54:20.342Z,981.86
2018-01-18T23:55:20.322Z,981.96
2018-01-18T23:56:20.297Z,981.95
2018-01-18T23:57:20.291Z,982.01
2018-01-18T23:58:20.263Z,981.92
2018-01-18T23:59:20.232Z,981.93
